createdAt,value
2018-03-07T00:00:19.771Z,6.35
2018-03-07T00:02:48.232Z,6.43
2018-03-07T00:05:15.722Z,6.42
2018-03-07T00:07:43.252Z,6.47
2018-03-07T00:10:10.788Z,6.62
2018-03-07T00:12:38.247Z,6.51
2018-03-07T00:15:06.091Z,6.55
2018-03-07T00:17:33.575Z,6.57
2018-03-07T00:20:01.100Z,6.70
2018-03-07T00:22:28.831Z,6.80
2018-03-07T00:24:56.353Z,6.87
2018-03-07T00:27:23.817Z,6.79
2018-03-07T00:29:52.056Z,6.72
2018-03-07T00:32:19.511Z,6.63
2018-03-07T00:34:47.391Z,6.67
2018-03-07T00:37:15.279Z,6.64
2018-03-07T00:39:43.059Z,6.62
2018-03-07T00:42:11.728Z,6.51
2018-03-07T00:44:39.737Z,6.14
2018-03-07T00:47:08.111Z,5.85
2018-03-07T00:49:36.536Z,5.74
2018-03-07T00:52:04.163Z,5.83
2018-03-07T00:54:31.643Z,5.99
2018-03-07T00:56:59.132Z,5.92
2018-03-07T00:59:27.425Z,5.92
2018-03-07T01:01:55.184Z,5.93
2018-03-07T01:04:22.670Z,5.80
2018-03-07T01:06:50.587Z,5.84
2018-03-07T01:09:18.370Z,5.83
2018-03-07T01:11:45.837Z,5.82
2018-03-07T01:14:13.311Z,5.90
2018-03-07T01:16:41.068Z,5.85
2018-03-07T01:19:08.546Z,5.82
2018-03-07T01:21:36.054Z,5.71
2018-03-07T01:24:04.191Z,5.73
2018-03-07T01:26:31.675Z,5.79
2018-03-07T01:28:59.143Z,5.82
2018-03-07T01:31:26.659Z,5.80
2018-03-07T01:33:54.352Z,5.82
2018-03-07T01:36:21.836Z,5.73
2018-03-07T01:38:50.116Z,5.37
2018-03-07T01:41:17.571Z,5.18
2018-03-07T01:43:45.051Z,5.15
2018-03-07T01:46:13.980Z,5.12
2018-03-07T01:48:41.696Z,5.11
2018-03-07T01:51:09.183Z,5.07
2018-03-07T01:53:37.642Z,4.90
2018-03-07T01:56:05.163Z,4.74
2018-03-07T01:58:32.691Z,4.59
2018-03-07T02:01:00.867Z,4.46
2018-03-07T02:03:28.652Z,4.42
2018-03-07T02:05:56.135Z,4.44
2018-03-07T02:08:23.647Z,4.35
2018-03-07T02:10:52.658Z,4.25
2018-03-07T02:13:20.219Z,4.10
2018-03-07T02:15:48.019Z,3.98
2018-03-07T02:18:15.480Z,3.80
2018-03-07T02:20:43.719Z,3.71
2018-03-07T02:23:11.231Z,3.68
2018-03-07T02:25:38.731Z,3.61
2018-03-07T02:28:06.572Z,3.54
2018-03-07T02:30:34.095Z,3.46
2018-03-07T02:33:01.593Z,3.41
2018-03-07T02:35:29.125Z,3.34
2018-03-07T02:37:56.638Z,3.28
2018-03-07T02:40:24.571Z,3.26
2018-03-07T02:42:52.057Z,3.20
2018-03-07T02:45:19.527Z,3.15
2018-03-07T02:47:47.406Z,3.06
2018-03-07T02:50:15.405Z,2.99
2018-03-07T02:52:42.925Z,2.85
2018-03-07T02:55:10.412Z,2.79
2018-03-07T02:57:37.952Z,2.71
2018-03-07T03:00:05.416Z,2.60
2018-03-07T03:02:32.941Z,2.47
2018-03-07T03:05:00.399Z,2.47
2018-03-07T03:07:28.441Z,2.41
2018-03-07T03:09:56.117Z,2.41
2018-03-07T03:12:23.624Z,2.41
2018-03-07T03:14:51.353Z,2.37
2018-03-07T03:17:18.872Z,2.31
2018-03-07T03:19:47.134Z,2.29
2018-03-07T03:22:14.619Z,2.28
2018-03-07T03:24:42.470Z,2.21
2018-03-07T03:27:10.368Z,2.20
2018-03-07T03:29:38.067Z,2.17
2018-03-07T03:32:05.627Z,2.19
2018-03-07T03:34:33.355Z,2.17
2018-03-07T03:37:00.844Z,2.19
2018-03-07T03:39:28.383Z,2.18
2018-03-07T03:41:55.863Z,2.14
2018-03-07T03:44:24.442Z,2.12
2018-03-07T03:46:53.355Z,2.20
2018-03-07T03:49:20.846Z,2.27
2018-03-07T03:51:48.767Z,2.19
2018-03-07T03:54:16.235Z,2.16
2018-03-07T03:56:44.260Z,2.08
2018-03-07T03:59:11.766Z,2.04
2018-03-07T04:01:39.276Z,2.00
2018-03-07T04:04:06.731Z,2.06
2018-03-07T04:06:34.214Z,2.07
2018-03-07T04:09:02.071Z,2.08
2018-03-07T04:11:30.440Z,2.13
2018-03-07T04:13:57.932Z,2.33
2018-03-07T04:16:25.393Z,2.44
2018-03-07T04:18:53.147Z,2.51
2018-03-07T04:21:21.074Z,2.62
2018-03-07T04:23:48.552Z,2.56
2018-03-07T04:26:16.011Z,2.68
2018-03-07T04:28:43.720Z,2.69
2018-03-07T04:31:12.291Z,2.72
2018-03-07T04:33:39.799Z,2.74
2018-03-07T04:36:07.495Z,2.68
2018-03-07T04:38:35.040Z,2.60
2018-03-07T04:41:03.387Z,2.52
2018-03-07T04:43:30.899Z,2.45
2018-03-07T04:45:58.370Z,2.48
2018-03-07T04:48:26.143Z,2.47
2018-03-07T04:50:53.607Z,2.42
2018-03-07T04:53:21.137Z,2.36
2018-03-07T04:55:48.980Z,2.33
2018-03-07T04:58:17.326Z,2.20
2018-03-07T05:00:44.815Z,2.11
2018-03-07T05:03:12.366Z,2.25
2018-03-07T05:05:39.828Z,2.27
2018-03-07T05:08:07.335Z,2.30
2018-03-07T05:10:34.886Z,2.26
2018-03-07T05:13:02.583Z,2.30
2018-03-07T05:15:30.635Z,2.24
2018-03-07T05:17:58.151Z,2.06
2018-03-07T05:20:25.991Z,2.03
2018-03-07T05:22:53.464Z,1.97
2018-03-07T05:25:20.947Z,1.88
2018-03-07T05:27:48.927Z,1.81
2018-03-07T05:30:16.390Z,1.77
2018-03-07T05:32:44.783Z,1.74
2018-03-07T05:35:12.349Z,1.67
2018-03-07T05:37:39.855Z,1.62
2018-03-07T05:40:07.336Z,1.55
2018-03-07T05:42:35.788Z,1.50
2018-03-07T05:45:03.387Z,1.45
2018-03-07T05:47:30.848Z,1.48
2018-03-07T05:49:58.331Z,1.64
2018-03-07T05:52:25.809Z,1.68
2018-03-07T05:54:53.552Z,1.75
2018-03-07T05:57:21.495Z,1.77
2018-03-07T05:59:48.974Z,1.88
2018-03-07T06:02:16.852Z,2.02
2018-03-07T06:04:44.407Z,2.07
2018-03-07T06:07:12.124Z,2.13
2018-03-07T06:09:39.992Z,2.11
2018-03-07T06:12:07.515Z,2.17
2018-03-07T06:14:35.038Z,2.09
2018-03-07T06:17:02.787Z,2.01
2018-03-07T06:19:31.205Z,2.03
2018-03-07T06:21:59.579Z,2.27
2018-03-07T06:24:33.539Z,2.47
2018-03-07T06:27:01.105Z,2.64
2018-03-07T06:29:28.891Z,2.73
2018-03-07T06:31:56.655Z,2.71
2018-03-07T06:34:24.567Z,2.69
2018-03-07T06:36:52.028Z,2.71
2018-03-07T06:39:20.190Z,2.69
2018-03-07T06:41:47.656Z,2.71
2018-03-07T06:44:15.161Z,2.69
2018-03-07T06:46:43.569Z,2.60
2018-03-07T06:49:11.056Z,2.53
2018-03-07T06:51:38.535Z,2.62
2018-03-07T06:54:06.093Z,2.60
2018-03-07T06:56:34.164Z,2.64
2018-03-07T06:59:01.661Z,2.66
2018-03-07T07:01:29.199Z,2.76
2018-03-07T07:03:56.733Z,2.85
2018-03-07T07:06:25.527Z,3.02
2018-03-07T07:08:54.158Z,3.15
2018-03-07T07:11:21.910Z,3.23
2018-03-07T07:13:50.337Z,3.11
2018-03-07T07:16:17.832Z,3.17
2018-03-07T07:18:45.768Z,3.33
2018-03-07T07:21:14.095Z,3.41
2018-03-07T07:23:41.543Z,3.42
2018-03-07T07:26:09.124Z,3.59
2018-03-07T07:28:36.588Z,3.83
2018-03-07T07:31:04.070Z,4.01
2018-03-07T07:33:31.544Z,4.14
2018-03-07T07:35:59.110Z,4.31
2018-03-07T07:38:26.644Z,4.30
2018-03-07T07:40:54.863Z,4.45
2018-03-07T07:43:22.553Z,4.64
2018-03-07T07:45:50.093Z,4.64
2018-03-07T07:48:17.627Z,4.75
2018-03-07T07:50:45.124Z,4.89
2018-03-07T07:53:12.591Z,5.10
2018-03-07T07:55:40.066Z,5.09
2018-03-07T07:58:08.029Z,5.10
2018-03-07T08:00:36.733Z,5.06
2018-03-07T08:03:04.471Z,5.23
2018-03-07T08:05:32.251Z,5.35
2018-03-07T08:07:59.796Z,5.30
2018-03-07T08:10:27.271Z,5.47
2018-03-07T08:12:55.210Z,5.50
2018-03-07T08:15:22.916Z,5.56
2018-03-07T08:17:50.851Z,5.58
2018-03-07T08:20:18.583Z,5.84
2018-03-07T08:22:46.129Z,5.87
2018-03-07T08:25:13.636Z,5.92
2018-03-07T08:27:41.388Z,5.93
2018-03-07T08:30:08.881Z,5.96
2018-03-07T08:32:37.486Z,5.87
2018-03-07T08:35:04.956Z,5.88
2018-03-07T08:37:32.459Z,5.95
2018-03-07T08:39:59.922Z,5.79
2018-03-07T08:42:28.349Z,5.67
2018-03-07T08:44:56.169Z,5.74
2018-03-07T08:47:23.655Z,5.80
2018-03-07T08:49:52.072Z,5.99
2018-03-07T08:52:19.551Z,5.92
2018-03-07T08:54:47.054Z,6.18
2018-03-07T08:57:14.899Z,6.16
2018-03-07T08:59:42.627Z,6.20
2018-03-07T09:02:11.287Z,5.99
2018-03-07T09:04:38.748Z,5.88
2018-03-07T09:07:06.527Z,5.74
2018-03-07T09:09:34.027Z,5.74
2018-03-07T09:12:01.556Z,5.59
2018-03-07T09:14:29.179Z,5.76
2018-03-07T09:16:57.045Z,5.84
2018-03-07T09:19:24.512Z,5.97
2018-03-07T09:21:52.083Z,6.00
2018-03-07T09:24:20.215Z,6.07
2018-03-07T09:26:47.761Z,6.22
2018-03-07T09:29:15.302Z,6.49
2018-03-07T09:31:42.789Z,6.49
2018-03-07T09:34:10.783Z,6.85
2018-03-07T09:36:38.791Z,7.18
2018-03-07T09:39:06.254Z,7.33
2018-03-07T09:41:33.739Z,7.59
2018-03-07T09:44:01.956Z,7.89
2018-03-07T09:46:30.616Z,8.19
2018-03-07T09:48:58.332Z,8.28
2018-03-07T09:51:26.784Z,8.57
2018-03-07T09:53:55.188Z,8.63
2018-03-07T09:56:22.759Z,8.63
2018-03-07T09:58:50.187Z,8.71
2018-03-07T10:01:17.644Z,8.65
2018-03-07T10:03:45.512Z,8.57
2018-03-07T10:06:13.393Z,8.65
2018-03-07T10:08:41.112Z,8.71
2018-03-07T10:11:08.620Z,8.72
2018-03-07T10:13:36.216Z,8.77
2018-03-07T10:16:03.688Z,8.92
2018-03-07T10:18:31.218Z,9.11
2018-03-07T10:20:59.154Z,9.35
2018-03-07T10:23:26.624Z,9.36
2018-03-07T10:25:54.111Z,9.45
2018-03-07T10:28:21.644Z,9.59
2018-03-07T10:30:49.110Z,9.54
2018-03-07T10:33:22.268Z,9.43
2018-03-07T10:35:50.246Z,9.24
2018-03-07T10:38:18.254Z,9.22
2018-03-07T10:40:47.035Z,9.38
2018-03-07T10:43:14.515Z,9.15
2018-03-07T10:45:42.261Z,8.91
2018-03-07T10:48:09.741Z,8.89
2018-03-07T10:50:37.440Z,9.23
2018-03-07T10:53:04.971Z,9.22
2018-03-07T10:55:32.440Z,9.19
2018-03-07T10:57:59.919Z,9.09
2018-03-07T11:00:32.913Z,9.02
2018-03-07T11:03:00.758Z,8.99
2018-03-07T11:05:28.926Z,8.73
2018-03-07T11:07:56.700Z,8.66
2018-03-07T11:10:24.197Z,8.75
2018-03-07T11:12:52.583Z,9.07
2018-03-07T11:15:20.384Z,9.24
2018-03-07T11:17:47.864Z,9.28
2018-03-07T11:20:15.551Z,9.25
2018-03-07T11:22:43.093Z,8.95
2018-03-07T11:25:10.575Z,9.13
2018-03-07T11:27:38.119Z,9.22
2018-03-07T11:30:05.809Z,9.33
2018-03-07T11:32:33.643Z,9.42
2018-03-07T11:35:01.315Z,9.11
2018-03-07T11:37:28.792Z,9.21
2018-03-07T11:39:56.305Z,9.02
2018-03-07T11:42:24.659Z,8.70
2018-03-07T11:44:52.697Z,8.56
2018-03-07T11:47:20.158Z,8.45
2018-03-07T11:49:47.630Z,8.42
2018-03-07T11:52:15.088Z,8.32
2018-03-07T11:54:42.616Z,8.38
2018-03-07T11:57:10.075Z,8.40
2018-03-07T11:59:37.549Z,8.30
2018-03-07T12:02:05.023Z,8.25
2018-03-07T12:04:32.552Z,8.28
2018-03-07T12:07:00.047Z,8.30
2018-03-07T12:09:27.571Z,8.41
2018-03-07T12:11:55.384Z,8.27
2018-03-07T12:14:23.639Z,8.32
2018-03-07T12:16:52.950Z,8.20
2018-03-07T12:19:20.662Z,8.28
2018-03-07T12:21:49.083Z,8.30
2018-03-07T12:24:16.554Z,8.20
2018-03-07T12:26:44.009Z,8.21
2018-03-07T12:29:11.577Z,8.23
2018-03-07T12:31:39.743Z,8.28
2018-03-07T12:34:07.475Z,8.36
2018-03-07T12:36:35.238Z,8.60
2018-03-07T12:39:02.715Z,8.41
2018-03-07T12:41:30.204Z,8.34
2018-03-07T12:43:57.765Z,8.43
2018-03-07T12:46:25.258Z,8.61
2018-03-07T12:48:52.775Z,8.58
2018-03-07T12:51:20.468Z,8.54
2018-03-07T12:53:47.983Z,8.72
2018-03-07T12:56:15.471Z,8.82
2018-03-07T12:58:43.817Z,8.81
2018-03-07T13:01:12.395Z,9.02
2018-03-07T13:03:40.804Z,8.87
2018-03-07T13:06:08.255Z,8.80
2018-03-07T13:08:36.101Z,8.95
2018-03-07T13:11:03.840Z,8.77
2018-03-07T13:13:31.328Z,8.80
2018-03-07T13:15:58.881Z,8.78
2018-03-07T13:18:26.352Z,8.78
2018-03-07T13:20:54.072Z,8.83
2018-03-07T13:23:21.992Z,9.02
2018-03-07T13:25:49.475Z,9.01
2018-03-07T13:28:17.621Z,8.92
2018-03-07T13:30:45.538Z,8.80
2018-03-07T13:33:12.996Z,8.58
2018-03-07T13:35:40.564Z,8.52
2018-03-07T13:38:09.736Z,8.58
2018-03-07T13:40:37.316Z,8.60
2018-03-07T13:43:04.836Z,8.67
2018-03-07T13:45:32.347Z,8.63
2018-03-07T13:47:59.796Z,8.59
2018-03-07T13:50:27.286Z,8.47
2018-03-07T13:52:55.242Z,8.45
2018-03-07T13:55:23.194Z,8.38
2018-03-07T13:57:51.782Z,8.34
2018-03-07T14:00:19.492Z,8.37
2018-03-07T14:02:47.603Z,8.43
2018-03-07T14:05:15.079Z,8.38
2018-03-07T14:07:42.587Z,8.59
2018-03-07T14:10:10.442Z,8.92
2018-03-07T14:12:37.912Z,9.00
2018-03-07T14:15:05.611Z,9.09
2018-03-07T14:17:33.109Z,8.97
2018-03-07T14:20:00.638Z,9.02
2018-03-07T14:22:28.133Z,8.95
2018-03-07T14:24:57.234Z,9.12
2018-03-07T14:29:57.792Z,9.11
2018-03-07T14:32:25.720Z,8.89
2018-03-07T14:34:53.188Z,8.73
2018-03-07T14:37:21.472Z,8.63
2018-03-07T14:39:49.044Z,8.59
2018-03-07T14:42:16.627Z,8.89
2018-03-07T14:44:44.500Z,8.93
2018-03-07T14:47:12.489Z,8.84
2018-03-07T14:49:40.184Z,8.77
2018-03-07T14:52:07.655Z,8.88
2018-03-07T14:54:35.544Z,9.00
2018-03-07T14:57:03.621Z,8.98
2018-03-07T14:59:31.107Z,9.11
2018-03-07T15:01:58.987Z,8.83
2018-03-07T15:04:26.526Z,8.84
2018-03-07T15:06:54.203Z,8.74
2018-03-07T15:09:22.028Z,8.65
2018-03-07T15:11:49.532Z,8.64
2018-03-07T15:14:17.231Z,8.53
2018-03-07T15:16:45.417Z,8.51
2018-03-07T15:19:13.243Z,8.39
2018-03-07T15:21:40.739Z,8.34
2018-03-07T15:24:08.220Z,8.45
2018-03-07T15:26:35.731Z,8.43
2018-03-07T15:29:03.236Z,8.47
2018-03-07T15:31:30.724Z,8.48
2018-03-07T15:33:58.271Z,8.55
2018-03-07T15:36:25.975Z,8.56
2018-03-07T15:38:53.497Z,8.46
2018-03-07T15:41:21.017Z,8.27
2018-03-07T15:43:48.464Z,8.25
2018-03-07T15:46:15.951Z,8.27
2018-03-07T15:48:44.475Z,8.55
2018-03-07T15:51:12.105Z,8.47
2018-03-07T15:53:39.568Z,8.21
2018-03-07T15:56:07.516Z,8.22
2018-03-07T15:58:34.969Z,8.18
2018-03-07T16:01:02.472Z,8.14
2018-03-07T16:03:29.966Z,8.19
2018-03-07T16:05:58.401Z,8.35
2018-03-07T16:08:26.232Z,8.27
2018-03-07T16:10:53.859Z,8.22
2018-03-07T16:13:21.336Z,8.15
2018-03-07T16:15:48.860Z,8.13
2018-03-07T16:18:16.428Z,8.11
2018-03-07T16:20:43.878Z,8.14
2018-03-07T16:23:11.379Z,8.13
2018-03-07T16:25:38.923Z,8.17
2018-03-07T16:28:06.423Z,8.16
2018-03-07T16:30:35.668Z,8.19
2018-03-07T16:33:03.370Z,8.13
2018-03-07T16:35:30.901Z,8.14
2018-03-07T16:37:58.679Z,8.00
2018-03-07T16:40:26.172Z,7.96
2018-03-07T16:42:53.707Z,7.94
2018-03-07T16:45:22.177Z,7.85
2018-03-07T16:47:49.707Z,7.78
2018-03-07T16:50:17.590Z,7.72
2018-03-07T16:52:46.047Z,7.67
2018-03-07T16:55:13.570Z,7.59
2018-03-07T16:57:41.147Z,7.54
2018-03-07T17:00:08.601Z,7.47
2018-03-07T17:02:36.088Z,7.44
2018-03-07T17:05:03.535Z,7.43
2018-03-07T17:07:31.499Z,7.40
2018-03-07T17:09:59.187Z,7.40
2018-03-07T17:12:27.035Z,7.33
2018-03-07T17:14:54.856Z,7.28
2018-03-07T17:17:22.379Z,7.29
2018-03-07T17:19:49.830Z,7.25
2018-03-07T17:22:17.359Z,7.25
2018-03-07T17:24:45.840Z,7.23
2018-03-07T17:27:13.544Z,7.15
2018-03-07T17:29:41.035Z,7.15
2018-03-07T17:32:08.511Z,7.10
2018-03-07T17:34:35.998Z,7.09
2018-03-07T17:37:03.483Z,7.04
2018-03-07T17:39:30.956Z,7.03
2018-03-07T17:41:58.415Z,7.02
2018-03-07T17:44:25.956Z,6.98
2018-03-07T17:46:53.465Z,6.99
2018-03-07T17:49:21.175Z,6.91
2018-03-07T17:51:48.622Z,6.94
2018-03-07T17:54:16.127Z,6.84
2018-03-07T17:56:43.596Z,6.70
2018-03-07T17:59:11.074Z,6.64
2018-03-07T18:01:39.144Z,6.61
2018-03-07T18:04:07.410Z,6.53
2018-03-07T18:06:34.944Z,6.55
2018-03-07T18:09:02.417Z,6.55
2018-03-07T18:11:30.757Z,6.49
2018-03-07T18:13:58.233Z,6.48
2018-03-07T18:16:25.692Z,6.46
2018-03-07T18:18:53.207Z,6.35
2018-03-07T18:21:21.253Z,6.32
2018-03-07T18:23:49.112Z,6.32
2018-03-07T18:26:16.580Z,6.33
2018-03-07T18:28:44.671Z,6.24
2018-03-07T18:31:12.231Z,6.18
2018-03-07T18:33:39.712Z,6.11
2018-03-07T18:36:07.613Z,6.04
2018-03-07T18:38:36.080Z,5.97
2018-03-07T18:41:03.903Z,6.00
2018-03-07T18:43:31.420Z,6.00
2018-03-07T18:45:58.926Z,5.96
2018-03-07T18:48:26.636Z,5.99
2018-03-07T18:50:54.399Z,5.97
2018-03-07T18:53:21.899Z,5.93
2018-03-07T18:55:49.413Z,6.01
2018-03-07T18:58:18.640Z,5.95
2018-03-07T19:00:46.091Z,5.90
2018-03-07T19:03:13.920Z,5.95
2018-03-07T19:05:43.068Z,5.94
2018-03-07T19:08:10.576Z,5.93
2018-03-07T19:10:39.640Z,5.92
2018-03-07T19:13:07.452Z,5.95
2018-03-07T19:15:35.899Z,6.02
2018-03-07T19:18:04.255Z,6.05
2018-03-07T19:20:32.533Z,6.06
2018-03-07T19:23:00.371Z,6.05
2018-03-07T19:25:28.361Z,5.98
2018-03-07T19:27:56.953Z,6.04
2018-03-07T19:30:24.471Z,6.03
2018-03-07T19:32:51.948Z,6.06
2018-03-07T19:35:19.452Z,6.08
2018-03-07T19:37:46.911Z,6.07
2018-03-07T19:40:15.446Z,6.07
2018-03-07T19:42:42.959Z,6.12
2018-03-07T19:45:10.715Z,6.15
2018-03-07T19:47:38.405Z,6.08
2018-03-07T19:50:05.972Z,6.09
2018-03-07T19:52:33.449Z,6.16
2018-03-07T19:55:01.214Z,6.07
2018-03-07T19:57:29.028Z,6.14
2018-03-07T19:59:56.529Z,6.10
2018-03-07T20:02:24.020Z,6.11
2018-03-07T20:04:52.311Z,6.11
2018-03-07T20:07:20.156Z,6.12
2018-03-07T20:09:48.454Z,6.16
2018-03-07T20:12:16.426Z,6.01
2018-03-07T20:14:43.958Z,6.09
2018-03-07T20:17:11.460Z,6.11
2018-03-07T20:19:39.767Z,6.13
2018-03-07T20:22:07.243Z,6.15
2018-03-07T20:24:35.982Z,6.16
2018-03-07T20:27:03.758Z,6.18
2018-03-07T20:29:31.315Z,6.11
2018-03-07T20:31:59.593Z,6.13
2018-03-07T20:34:27.066Z,6.15
2018-03-07T20:36:54.523Z,6.18
2018-03-07T20:39:22.057Z,6.17
2018-03-07T20:41:51.864Z,6.16
2018-03-07T20:44:19.663Z,6.22
2018-03-07T20:46:47.175Z,6.19
2018-03-07T20:49:17.033Z,6.17
2018-03-07T20:51:47.091Z,6.16
2018-03-07T20:54:19.328Z,6.17
2018-03-07T20:56:48.110Z,6.14
2018-03-07T20:59:15.563Z,6.12
2018-03-07T21:01:44.962Z,6.05
2018-03-07T21:04:13.227Z,6.06
2018-03-07T21:06:40.990Z,6.00
2018-03-07T21:09:08.705Z,5.98
2018-03-07T21:11:36.385Z,5.90
2018-03-07T21:14:03.893Z,5.78
2018-03-07T21:16:31.753Z,5.71
2018-03-07T21:18:59.398Z,5.68
2018-03-07T21:21:27.062Z,5.62
2018-03-07T21:23:54.902Z,5.64
2018-03-07T21:26:22.660Z,5.68
2018-03-07T21:28:51.524Z,5.68
2018-03-07T21:31:19.326Z,5.70
2018-03-07T21:33:47.046Z,5.71
2018-03-07T21:36:15.127Z,5.64
2018-03-07T21:38:43.843Z,5.71
2018-03-07T21:41:13.630Z,5.69
2018-03-07T21:43:43.473Z,5.67
2018-03-07T21:46:11.362Z,5.67
2018-03-07T21:48:39.104Z,5.78
2018-03-07T21:51:07.346Z,5.67
2018-03-07T21:53:35.513Z,5.75
2018-03-07T21:56:03.386Z,5.78
2018-03-07T21:58:31.448Z,5.76
2018-03-07T22:01:01.225Z,5.78
2018-03-07T22:03:28.866Z,5.73
2018-03-07T22:05:57.420Z,5.73
2018-03-07T22:08:26.838Z,5.72
2018-03-07T22:10:56.004Z,5.72
2018-03-07T22:13:24.465Z,5.73
2018-03-07T22:15:54.133Z,5.75
2018-03-07T22:18:22.592Z,5.69
2018-03-07T22:20:50.271Z,5.69
2018-03-07T22:23:17.739Z,5.64
2018-03-07T22:25:45.509Z,5.64
2018-03-07T22:28:13.127Z,5.65
2018-03-07T22:30:41.299Z,5.68
2018-03-07T22:33:09.709Z,5.69
2018-03-07T22:35:37.255Z,5.68
2018-03-07T22:38:04.797Z,5.68
2018-03-07T22:40:32.255Z,5.67
2018-03-07T22:43:00.553Z,5.68
2018-03-07T22:45:28.675Z,5.65
2018-03-07T22:47:56.578Z,5.65
2018-03-07T22:50:24.565Z,5.58
2018-03-07T22:52:52.091Z,5.54
2018-03-07T22:55:20.742Z,5.51
2018-03-07T22:57:48.234Z,5.58
2018-03-07T23:00:25.086Z,5.62
2018-03-07T23:02:52.869Z,5.68
2018-03-07T23:05:21.375Z,5.64
2018-03-07T23:07:49.088Z,5.75
2018-03-07T23:10:16.564Z,5.91
2018-03-07T23:12:44.886Z,5.98
2018-03-07T23:15:12.571Z,6.01
2018-03-07T23:17:40.078Z,6.03
2018-03-07T23:20:07.558Z,6.07
2018-03-07T23:22:35.097Z,6.03
2018-03-07T23:25:02.611Z,6.05
2018-03-07T23:27:30.318Z,6.10
2018-03-07T23:29:57.872Z,6.14
2018-03-07T23:32:25.403Z,6.13
2018-03-07T23:34:52.858Z,6.18
2018-03-07T23:37:20.701Z,6.12
2018-03-07T23:39:48.952Z,6.05
2018-03-07T23:42:16.464Z,6.06
2018-03-07T23:44:43.967Z,6.07
2018-03-07T23:47:11.467Z,6.04
2018-03-07T23:49:39.497Z,5.99
2018-03-07T23:52:07.206Z,6.03
2018-03-07T23:54:35.285Z,6.06
2018-03-07T23:57:03.371Z,6.01
2018-03-07T23:59:30.872Z,6.00
